PWSweather.com
Personal Weather Stations
Station Observations
MIKESPOST
YorkGB

YorkGB

Lat: 53.9577018, Lon: -1.0822855

Elevation: 0

Station Type: WH1081

High Low Average
Temperature 72.7°F22.6°C 45.1°F7.3°C 55.0°F12.8°C
Dew Point 51.9°F11.1°C 40.8°F4.9°C 46.0°F7.8°C
Winds 4.5 mph 7.2 kmh Calm Calm 2.0 mph W3.2 kmh W
Wind Gusts 11.4 mph18.3 kmh -- 4.0 mph6.4 kmh
Humidity 95% 45% 75%
Pressure 30.50 in1032.8 mb 30.40 in1029.5 mb -
Precipitation 0.00 in0.0 mm - -
Hour Temp Dew Point Humidity Winds Wind Gusts Pressure Precip Precip Rate Daily Precip Total
12:07 AM 47.3°F8.5°C 45.1°F7.3°C 92% Calm Calm -- 30.50 in1032.8 mb 0.00 in0.0 mm 0.00 in/hr0.0 mm/hr 0.00 in0.0 mm
12:17 AM 47.1°F8.4°C 44.9°F7.2°C 92% 0.4 mph W0.6 kmh W 1.0 mph1.6 kmh 30.49 in1032.5 mb 0.00 in0.0 mm 0.00 in/hr0.0 mm/hr 0.00 in0.0 mm
12:27 AM 47.1°F8.4°C 44.9°F7.2°C 92% 0.4 mph N0.6 kmh N 1.0 mph1.6 kmh 30.49 in1032.5 mb 0.00 in0.0 mm 0.00 in/hr0.0 mm/hr 0.00 in0.0 mm
12:37 AM 47.1°F8.4°C 44.9°F7.2°C 92% 0.5 mph NW0.8 kmh NW 1.0 mph1.6 kmh 30.49 in1032.5 mb 0.00 in0.0 mm 0.00 in/hr0.0 mm/hr 0.00 in0.0 mm
12:47 AM 46.9°F8.3°C 44.7°F7.1°C 92% 0.3 mph W0.5 kmh W 1.0 mph1.6 kmh 30.49 in1032.5 mb 0.00 in0.0 mm 0.00 in/hr0.0 mm/hr 0.00 in0.0 mm
12:57 AM 46.9°F8.3°C 45.0°F7.2°C 93% 0.8 mph WNW1.3 kmh WNW 2.3 mph3.7 kmh 30.49 in1032.5 mb 0.00 in0.0 mm 0.00 in/hr0.0 mm/hr 0.00 in0.0 mm
01:07 AM 46.9°F8.3°C 45.0°F7.2°C 93% 0.3 mph NW0.5 kmh NW 1.0 mph1.6 kmh 30.49 in1032.5 mb 0.00 in0.0 mm 0.00 in/hr0.0 mm/hr 0.00 in0.0 mm
01:17 AM 46.9°F8.3°C 45.0°F7.2°C 93% 0.8 mph WNW1.3 kmh WNW 1.0 mph1.6 kmh 30.49 in1032.5 mb 0.00 in0.0 mm 0.00 in/hr0.0 mm/hr 0.00 in0.0 mm
01:27 AM 46.9°F8.3°C 45.0°F7.2°C 93% 0.5 mph NW0.8 kmh NW 1.0 mph1.6 kmh 30.49 in1032.5 mb 0.00 in0.0 mm 0.00 in/hr0.0 mm/hr 0.00 in0.0 mm
01:37 AM 46.9°F8.3°C 45.0°F7.2°C 93% 0.6 mph NNW1.0 kmh NNW 2.3 mph3.7 kmh 30.49 in1032.5 mb 0.00 in0.0 mm 0.00 in/hr0.0 mm/hr 0.00 in0.0 mm
01:47 AM 46.9°F8.3°C 45.3°F7.4°C 94% 0.7 mph WNW1.1 kmh WNW 1.0 mph1.6 kmh 30.49 in1032.5 mb 0.00 in0.0 mm 0.00 in/hr0.0 mm/hr 0.00 in0.0 mm
01:57 AM 46.9°F8.3°C 45.3°F7.4°C 94% 0.8 mph NW1.3 kmh NW 1.0 mph1.6 kmh 30.49 in1032.5 mb 0.00 in0.0 mm 0.00 in/hr0.0 mm/hr 0.00 in0.0 mm
02:07 AM 46.9°F8.3°C 45.3°F7.4°C 94% 1.4 mph NW2.3 kmh NW 2.3 mph3.7 kmh 30.48 in1032.2 mb 0.00 in0.0 mm 0.00 in/hr0.0 mm/hr 0.00 in0.0 mm
02:17 AM 46.9°F8.3°C 45.3°F7.4°C 94% 1.0 mph W1.6 kmh W 2.3 mph3.7 kmh 30.48 in1032.2 mb 0.00 in0.0 mm 0.00 in/hr0.0 mm/hr 0.00 in0.0 mm
02:27 AM 46.9°F8.3°C 45.3°F7.4°C 94% 1.2 mph NW1.9 kmh NW 2.3 mph3.7 kmh 30.48 in1032.2 mb 0.00 in0.0 mm 0.00 in/hr0.0 mm/hr 0.00 in0.0 mm
02:37 AM 46.9°F8.3°C 45.3°F7.4°C 94% 1.1 mph W1.8 kmh W 2.3 mph3.7 kmh 30.48 in1032.2 mb 0.00 in0.0 mm 0.00 in/hr0.0 mm/hr 0.00 in0.0 mm
02:47 AM 46.9°F8.3°C 45.3°F7.4°C 94% 1.0 mph WSW1.6 kmh WSW 2.3 mph3.7 kmh 30.48 in1032.2 mb 0.00 in0.0 mm 0.00 in/hr0.0 mm/hr 0.00 in0.0 mm
02:57 AM 46.9°F8.3°C 45.3°F7.4°C 94% 1.3 mph W2.1 kmh W 2.3 mph3.7 kmh 30.48 in1032.2 mb 0.00 in0.0 mm 0.00 in/hr0.0 mm/hr 0.00 in0.0 mm
03:07 AM 46.9°F8.3°C 45.3°F7.4°C 94% 1.7 mph NW2.7 kmh NW 2.3 mph3.7 kmh 30.48 in1032.2 mb 0.00 in0.0 mm 0.00 in/hr0.0 mm/hr 0.00 in0.0 mm
03:17 AM 46.9°F8.3°C 45.3°F7.4°C 94% 1.5 mph NW2.4 kmh NW 2.3 mph3.7 kmh 30.48 in1032.2 mb 0.00 in0.0 mm 0.00 in/hr0.0 mm/hr 0.00 in0.0 mm
03:27 AM 46.9°F8.3°C 45.3°F7.4°C 94% 1.4 mph WNW2.3 kmh WNW 2.3 mph3.7 kmh 30.48 in1032.2 mb 0.00 in0.0 mm 0.00 in/hr0.0 mm/hr 0.00 in0.0 mm
03:37 AM 46.9°F8.3°C 45.3°F7.4°C 94% 1.6 mph NW2.6 kmh NW 2.3 mph3.7 kmh 30.47 in1031.8 mb 0.00 in0.0 mm 0.00 in/hr0.0 mm/hr 0.00 in0.0 mm
03:47 AM 46.9°F8.3°C 45.3°F7.4°C 94% 2.0 mph NW3.2 kmh NW 2.3 mph3.7 kmh 30.47 in1031.8 mb 0.00 in0.0 mm 0.00 in/hr0.0 mm/hr 0.00 in0.0 mm
03:57 AM 46.8°F8.2°C 45.4°F7.4°C 95% 1.7 mph W2.7 kmh W 2.3 mph3.7 kmh 30.47 in1031.8 mb 0.00 in0.0 mm 0.00 in/hr0.0 mm/hr 0.00 in0.0 mm
04:07 AM 46.8°F8.2°C 45.4°F7.4°C 95% 1.5 mph WSW2.4 kmh WSW 2.3 mph3.7 kmh 30.47 in1031.8 mb 0.00 in0.0 mm 0.00 in/hr0.0 mm/hr 0.00 in0.0 mm
04:17 AM 46.8°F8.2°C 45.4°F7.4°C 95% 1.4 mph NW2.3 kmh NW 2.3 mph3.7 kmh 30.47 in1031.8 mb 0.00 in0.0 mm 0.00 in/hr0.0 mm/hr 0.00 in0.0 mm
04:27 AM 46.8°F8.2°C 45.4°F7.4°C 95% 1.9 mph NW3.1 kmh NW 2.3 mph3.7 kmh 30.47 in1031.8 mb 0.00 in0.0 mm 0.00 in/hr0.0 mm/hr 0.00 in0.0 mm
04:37 AM 46.8°F8.2°C 45.4°F7.4°C 95% 1.7 mph NNW2.7 kmh NNW 2.3 mph3.7 kmh 30.47 in1031.8 mb 0.00 in0.0 mm 0.00 in/hr0.0 mm/hr 0.00 in0.0 mm
04:47 AM 46.8°F8.2°C 45.4°F7.4°C 95% 1.7 mph NW2.7 kmh NW 2.3 mph3.7 kmh 30.47 in1031.8 mb 0.00 in0.0 mm 0.00 in/hr0.0 mm/hr 0.00 in0.0 mm
04:57 AM 46.9°F8.3°C 45.6°F7.6°C 95% 1.9 mph WNW3.1 kmh WNW 2.3 mph3.7 kmh 30.47 in1031.8 mb 0.00 in0.0 mm 0.00 in/hr0.0 mm/hr 0.00 in0.0 mm
05:07 AM 46.9°F8.3°C 45.6°F7.6°C 95% 1.5 mph NW2.4 kmh NW 3.4 mph5.5 kmh 30.47 in1031.8 mb 0.00 in0.0 mm 0.00 in/hr0.0 mm/hr 0.00 in0.0 mm
05:17 AM 46.9°F8.3°C 45.6°F7.6°C 95% 1.7 mph WNW2.7 kmh WNW 2.3 mph3.7 kmh 30.47 in1031.8 mb 0.00 in0.0 mm 0.00 in/hr0.0 mm/hr 0.00 in0.0 mm
05:27 AM 47.1°F8.4°C 45.8°F7.7°C 95% 1.5 mph WNW2.4 kmh WNW 2.3 mph3.7 kmh 30.47 in1031.8 mb 0.00 in0.0 mm 0.00 in/hr0.0 mm/hr 0.00 in0.0 mm
05:37 AM 47.5°F8.6°C 46.1°F7.8°C 95% 1.8 mph WNW2.9 kmh WNW 3.4 mph5.5 kmh 30.47 in1031.8 mb 0.00 in0.0 mm 0.00 in/hr0.0 mm/hr 0.00 in0.0 mm
05:47 AM 47.7°F8.7°C 46.3°F7.9°C 95% 1.5 mph NW2.4 kmh NW 2.3 mph3.7 kmh 30.47 in1031.8 mb 0.00 in0.0 mm 0.00 in/hr0.0 mm/hr 0.00 in0.0 mm
05:57 AM 48.4°F9.1°C 47.0°F8.3°C 95% 2.2 mph NW3.5 kmh NW 3.4 mph5.5 kmh 30.47 in1031.8 mb 0.00 in0.0 mm 0.00 in/hr0.0 mm/hr 0.00 in0.0 mm
06:07 AM 49.1°F9.5°C 47.7°F8.7°C 95% 2.0 mph NW3.2 kmh NW 3.4 mph5.5 kmh 30.48 in1032.2 mb 0.00 in0.0 mm 0.00 in/hr0.0 mm/hr 0.00 in0.0 mm
06:17 AM 49.8°F9.9°C 48.2°F9.0°C 94% 1.6 mph NW2.6 kmh NW 3.4 mph5.5 kmh 30.48 in1032.2 mb 0.00 in0.0 mm 0.00 in/hr0.0 mm/hr 0.00 in0.0 mm
06:27 AM 50.2°F10.1°C 48.5°F9.2°C 94% 1.3 mph NW2.1 kmh NW 2.3 mph3.7 kmh 30.48 in1032.2 mb 0.00 in0.0 mm 0.00 in/hr0.0 mm/hr 0.00 in0.0 mm
06:37 AM 50.7°F10.4°C 48.5°F9.2°C 92% 1.4 mph NW2.3 kmh NW 2.3 mph3.7 kmh 30.48 in1032.2 mb 0.00 in0.0 mm 0.00 in/hr0.0 mm/hr 0.00 in0.0 mm
06:47 AM 51.1°F10.6°C 48.5°F9.2°C 91% 1.7 mph NNW2.7 kmh NNW 3.4 mph5.5 kmh 30.48 in1032.2 mb 0.00 in0.0 mm 0.00 in/hr0.0 mm/hr 0.00 in0.0 mm
06:57 AM 51.6°F10.9°C 48.8°F9.3°C 90% 1.9 mph NW3.1 kmh NW 2.3 mph3.7 kmh 30.48 in1032.2 mb 0.00 in0.0 mm 0.00 in/hr0.0 mm/hr 0.00 in0.0 mm
07:07 AM 52.5°F11.4°C 49.4°F9.7°C 89% 2.0 mph WNW3.2 kmh WNW 3.4 mph5.5 kmh 30.48 in1032.2 mb 0.00 in0.0 mm 0.00 in/hr0.0 mm/hr 0.00 in0.0 mm
07:17 AM 53.1°F11.7°C 49.0°F9.4°C 86% 1.9 mph WSW3.1 kmh WSW 2.3 mph3.7 kmh 30.49 in1032.5 mb 0.00 in0.0 mm 0.00 in/hr0.0 mm/hr 0.00 in0.0 mm
07:27 AM 55.0°F12.8°C 50.2°F10.1°C 84% 1.8 mph NW2.9 kmh NW 3.4 mph5.5 kmh 30.49 in1032.5 mb 0.00 in0.0 mm 0.00 in/hr0.0 mm/hr 0.00 in0.0 mm
07:37 AM 56.7°F13.7°C 50.5°F10.3°C 80% 1.5 mph WNW2.4 kmh WNW 2.3 mph3.7 kmh 30.49 in1032.5 mb 0.00 in0.0 mm 0.00 in/hr0.0 mm/hr 0.00 in0.0 mm
07:47 AM 56.7°F13.7°C 49.4°F9.7°C 77% 1.8 mph NW2.9 kmh NW 3.4 mph5.5 kmh 30.48 in1032.2 mb 0.00 in0.0 mm 0.00 in/hr0.0 mm/hr 0.00 in0.0 mm
07:57 AM 57.2°F14.0°C 49.2°F9.6°C 75% 2.6 mph NNW4.2 kmh NNW 3.4 mph5.5 kmh 30.48 in1032.2 mb 0.00 in0.0 mm 0.00 in/hr0.0 mm/hr 0.00 in0.0 mm
08:07 AM 56.7°F13.7°C 48.7°F9.3°C 75% 2.5 mph WSW4.0 kmh WSW 4.7 mph7.6 kmh 30.48 in1032.2 mb 0.00 in0.0 mm 0.00 in/hr0.0 mm/hr 0.00 in0.0 mm
08:17 AM 56.8°F13.8°C 48.9°F9.4°C 75% 2.2 mph W3.5 kmh W 3.4 mph5.5 kmh 30.48 in1032.2 mb 0.00 in0.0 mm 0.00 in/hr0.0 mm/hr 0.00 in0.0 mm
08:27 AM 57.6°F14.2°C 49.2°F9.6°C 74% 2.1 mph NW3.4 kmh NW 3.4 mph5.5 kmh 30.48 in1032.2 mb 0.00 in0.0 mm 0.00 in/hr0.0 mm/hr 0.00 in0.0 mm
08:37 AM 58.6°F14.8°C 49.8°F9.9°C 73% 2.5 mph WNW4.0 kmh WNW 3.4 mph5.5 kmh 30.48 in1032.2 mb 0.00 in0.0 mm 0.00 in/hr0.0 mm/hr 0.00 in0.0 mm
08:47 AM 63.0°F17.2°C 51.5°F10.8°C 67% 2.5 mph NW4.0 kmh NW 4.7 mph7.6 kmh 30.48 in1032.2 mb 0.00 in0.0 mm 0.00 in/hr0.0 mm/hr 0.00 in0.0 mm
08:57 AM 64.8°F18.2°C 50.6°F10.3°C 61% 2.1 mph N3.4 kmh N 4.7 mph7.6 kmh 30.47 in1031.8 mb 0.00 in0.0 mm 0.00 in/hr0.0 mm/hr 0.00 in0.0 mm
09:07 AM 64.6°F18.1°C 50.4°F10.2°C 61% 2.8 mph SW4.5 kmh SW 4.7 mph7.6 kmh 30.48 in1032.2 mb 0.00 in0.0 mm 0.00 in/hr0.0 mm/hr 0.00 in0.0 mm
09:17 AM 66.2°F19.0°C 51.9°F11.1°C 61% 2.3 mph NW3.7 kmh NW 3.4 mph5.5 kmh 30.48 in1032.2 mb 0.00 in0.0 mm 0.00 in/hr0.0 mm/hr 0.00 in0.0 mm
09:27 AM 68.0°F20.0°C 50.0°F10.0°C 54% 2.2 mph NW3.5 kmh NW 3.4 mph5.5 kmh 30.48 in1032.2 mb 0.00 in0.0 mm 0.00 in/hr0.0 mm/hr 0.00 in0.0 mm
09:37 AM 69.3°F20.7°C 51.2°F10.7°C 54% 2.3 mph NNE3.7 kmh NNE 3.4 mph5.5 kmh 30.48 in1032.2 mb 0.00 in0.0 mm 0.00 in/hr0.0 mm/hr 0.00 in0.0 mm
09:47 AM 70.5°F21.4°C 50.1°F10.1°C 50% 2.4 mph ENE3.9 kmh ENE 3.4 mph5.5 kmh 30.48 in1032.2 mb 0.00 in0.0 mm 0.00 in/hr0.0 mm/hr 0.00 in0.0 mm
09:57 AM 70.9°F21.6°C 50.4°F10.2°C 50% 2.7 mph ENE4.3 kmh ENE 3.4 mph5.5 kmh 30.48 in1032.2 mb 0.00 in0.0 mm 0.00 in/hr0.0 mm/hr 0.00 in0.0 mm
10:07 AM 71.6°F22.0°C 51.1°F10.6°C 50% 2.5 mph SE4.0 kmh SE 3.4 mph5.5 kmh 30.47 in1031.8 mb 0.00 in0.0 mm 0.00 in/hr0.0 mm/hr 0.00 in0.0 mm
10:17 AM 70.7°F21.5°C 50.2°F10.1°C 50% 3.1 mph SW5.0 kmh SW 5.7 mph9.2 kmh 30.47 in1031.8 mb 0.00 in0.0 mm 0.00 in/hr0.0 mm/hr 0.00 in0.0 mm
10:27 AM 70.5°F21.4°C 50.1°F10.1°C 50% 3.2 mph NE5.1 kmh NE 3.4 mph5.5 kmh 30.47 in1031.8 mb 0.00 in0.0 mm 0.00 in/hr0.0 mm/hr 0.00 in0.0 mm
10:37 AM 69.8°F21.0°C 50.0°F10.0°C 51% 3.6 mph N5.8 kmh N 4.7 mph7.6 kmh 30.47 in1031.8 mb 0.00 in0.0 mm 0.00 in/hr0.0 mm/hr 0.00 in0.0 mm
10:47 AM 70.2°F21.2°C 48.6°F9.2°C 48% 3.1 mph WNW5.0 kmh WNW 4.7 mph7.6 kmh 30.47 in1031.8 mb 0.00 in0.0 mm 0.00 in/hr0.0 mm/hr 0.00 in0.0 mm
10:57 AM 67.5°F19.7°C 48.4°F9.1°C 52% 2.8 mph WSW4.5 kmh WSW 4.7 mph7.6 kmh 30.47 in1031.8 mb 0.00 in0.0 mm 0.00 in/hr0.0 mm/hr 0.00 in0.0 mm
11:07 AM 68.5°F20.3°C 50.0°F10.0°C 53% 3.0 mph NNW4.8 kmh NNW 5.7 mph9.2 kmh 30.47 in1031.8 mb 0.00 in0.0 mm 0.00 in/hr0.0 mm/hr 0.00 in0.0 mm
11:17 AM 70.7°F21.5°C 49.6°F9.8°C 49% 3.5 mph WSW5.6 kmh WSW 6.7 mph10.8 kmh 30.48 in1032.2 mb 0.00 in0.0 mm 0.00 in/hr0.0 mm/hr 0.00 in0.0 mm
11:27 AM 70.5°F21.4°C 47.6°F8.7°C 46% 3.0 mph W4.8 kmh W 5.7 mph9.2 kmh 30.47 in1031.8 mb 0.00 in0.0 mm 0.00 in/hr0.0 mm/hr 0.00 in0.0 mm
11:37 AM 70.3°F21.3°C 49.3°F9.6°C 49% 3.0 mph N4.8 kmh N 5.7 mph9.2 kmh 30.47 in1031.8 mb 0.00 in0.0 mm 0.00 in/hr0.0 mm/hr 0.00 in0.0 mm
11:47 AM 70.5°F21.4°C 49.5°F9.7°C 49% 3.0 mph N4.8 kmh N 4.7 mph7.6 kmh 30.46 in1031.5 mb 0.00 in0.0 mm 0.00 in/hr0.0 mm/hr 0.00 in0.0 mm
11:57 AM 71.2°F21.8°C 49.5°F9.7°C 48% 3.4 mph N5.5 kmh N 4.7 mph7.6 kmh 30.47 in1031.8 mb 0.00 in0.0 mm 0.00 in/hr0.0 mm/hr 0.00 in0.0 mm
12:07 PM 71.4°F21.9°C 49.1°F9.5°C 47% 3.2 mph WNW5.1 kmh WNW 4.7 mph7.6 kmh 30.47 in1031.8 mb 0.00 in0.0 mm 0.00 in/hr0.0 mm/hr 0.00 in0.0 mm
12:17 PM 71.4°F21.9°C 48.4°F9.1°C 46% 3.4 mph W5.5 kmh W 4.7 mph7.6 kmh 30.47 in1031.8 mb 0.00 in0.0 mm 0.00 in/hr0.0 mm/hr 0.00 in0.0 mm
12:27 PM 71.2°F21.8°C 48.9°F9.4°C 47% 3.2 mph SW5.1 kmh SW 4.7 mph7.6 kmh 30.46 in1031.5 mb 0.00 in0.0 mm 0.00 in/hr0.0 mm/hr 0.00 in0.0 mm
12:37 PM 71.6°F22.0°C 49.2°F9.6°C 47% 2.9 mph NW4.7 kmh NW 4.7 mph7.6 kmh 30.46 in1031.5 mb 0.00 in0.0 mm 0.00 in/hr0.0 mm/hr 0.00 in0.0 mm
12:47 PM 72.0°F22.2°C 49.6°F9.8°C 47% 3.1 mph SSW5.0 kmh SSW 4.7 mph7.6 kmh 30.46 in1031.5 mb 0.00 in0.0 mm 0.00 in/hr0.0 mm/hr 0.00 in0.0 mm
12:57 PM 72.7°F22.6°C 48.9°F9.4°C 45% 2.8 mph WNW4.5 kmh WNW 4.7 mph7.6 kmh 30.46 in1031.5 mb 0.00 in0.0 mm 0.00 in/hr0.0 mm/hr 0.00 in0.0 mm
01:07 PM 72.5°F22.5°C 48.7°F9.3°C 45% 3.2 mph WNW5.1 kmh WNW 4.7 mph7.6 kmh 30.46 in1031.5 mb 0.00 in0.0 mm 0.00 in/hr0.0 mm/hr 0.00 in0.0 mm
01:17 PM 71.8°F22.1°C 48.1°F8.9°C 45% 4.1 mph NW6.6 kmh NW 8.1 mph13.0 kmh 30.46 in1031.5 mb 0.00 in0.0 mm 0.00 in/hr0.0 mm/hr 0.00 in0.0 mm
01:27 PM 70.2°F21.2°C 48.6°F9.2°C 48% 3.5 mph W5.6 kmh W 5.7 mph9.2 kmh 30.46 in1031.5 mb 0.00 in0.0 mm 0.00 in/hr0.0 mm/hr 0.00 in0.0 mm
01:37 PM 69.1°F20.6°C 48.2°F9.0°C 49% 3.4 mph NW5.5 kmh NW 6.7 mph10.8 kmh 30.46 in1031.5 mb 0.00 in0.0 mm 0.00 in/hr0.0 mm/hr 0.00 in0.0 mm
01:47 PM 67.6°F19.8°C 48.0°F8.9°C 51% 3.9 mph NW6.3 kmh NW 4.7 mph7.6 kmh 30.46 in1031.5 mb 0.00 in0.0 mm 0.00 in/hr0.0 mm/hr 0.00 in0.0 mm
01:57 PM 66.0°F18.9°C 48.7°F9.3°C 55% 4.5 mph NW7.2 kmh NW 11.4 mph18.3 kmh 30.45 in1031.2 mb 0.00 in0.0 mm 0.00 in/hr0.0 mm/hr 0.00 in0.0 mm
02:07 PM 65.8°F18.8°C 49.1°F9.5°C 56% 3.2 mph W5.1 kmh W 4.7 mph7.6 kmh 30.45 in1031.2 mb 0.00 in0.0 mm 0.00 in/hr0.0 mm/hr 0.00 in0.0 mm
02:17 PM 65.1°F18.4°C 48.4°F9.1°C 56% 3.9 mph NNW6.3 kmh NNW 5.7 mph9.2 kmh 30.45 in1031.2 mb 0.00 in0.0 mm 0.00 in/hr0.0 mm/hr 0.00 in0.0 mm
02:27 PM 65.1°F18.4°C 48.4°F9.1°C 56% 3.3 mph NW5.3 kmh NW 4.7 mph7.6 kmh 30.45 in1031.2 mb 0.00 in0.0 mm 0.00 in/hr0.0 mm/hr 0.00 in0.0 mm
02:37 PM 65.3°F18.5°C 49.1°F9.5°C 57% 2.7 mph WNW4.3 kmh WNW 4.7 mph7.6 kmh 30.45 in1031.2 mb 0.00 in0.0 mm 0.00 in/hr0.0 mm/hr 0.00 in0.0 mm
02:47 PM 65.3°F18.5°C 48.6°F9.2°C 56% 3.4 mph NW5.5 kmh NW 4.7 mph7.6 kmh 30.45 in1031.2 mb 0.00 in0.0 mm 0.00 in/hr0.0 mm/hr 0.00 in0.0 mm
02:57 PM 64.8°F18.2°C 48.6°F9.2°C 57% 3.6 mph N5.8 kmh N 8.1 mph13.0 kmh 30.45 in1031.2 mb 0.00 in0.0 mm 0.00 in/hr0.0 mm/hr 0.00 in0.0 mm
03:07 PM 63.7°F17.6°C 48.1°F8.9°C 58% 3.9 mph WSW6.3 kmh WSW 8.1 mph13.0 kmh 30.45 in1031.2 mb 0.00 in0.0 mm 0.00 in/hr0.0 mm/hr 0.00 in0.0 mm
03:17 PM 62.2°F16.8°C 47.2°F8.4°C 59% 4.4 mph SE7.1 kmh SE 8.1 mph13.0 kmh 30.45 in1031.2 mb 0.00 in0.0 mm 0.00 in/hr0.0 mm/hr 0.00 in0.0 mm
03:27 PM 61.5°F16.4°C 47.5°F8.6°C 61% 3.0 mph NNW4.8 kmh NNW 5.7 mph9.2 kmh 30.45 in1031.2 mb 0.00 in0.0 mm 0.00 in/hr0.0 mm/hr 0.00 in0.0 mm
03:37 PM 60.3°F15.7°C 46.8°F8.2°C 62% 4.4 mph NW7.1 kmh NW 10.4 mph16.7 kmh 30.45 in1031.2 mb 0.00 in0.0 mm 0.00 in/hr0.0 mm/hr 0.00 in0.0 mm
03:47 PM 59.5°F15.3°C 47.0°F8.3°C 64% 3.9 mph NNE6.3 kmh NNE 9.1 mph14.6 kmh 30.45 in1031.2 mb 0.00 in0.0 mm 0.00 in/hr0.0 mm/hr 0.00 in0.0 mm
03:57 PM 59.0°F15.0°C 46.9°F8.3°C 65% 3.5 mph SW5.6 kmh SW 4.7 mph7.6 kmh 30.45 in1031.2 mb 0.00 in0.0 mm 0.00 in/hr0.0 mm/hr 0.00 in0.0 mm
04:07 PM 59.9°F15.5°C 47.4°F8.6°C 64% 3.4 mph SW5.5 kmh SW 4.7 mph7.6 kmh 30.45 in1031.2 mb 0.00 in0.0 mm 0.00 in/hr0.0 mm/hr 0.00 in0.0 mm
04:17 PM 59.0°F15.0°C 46.5°F8.1°C 64% 3.5 mph NW5.6 kmh NW 5.7 mph9.2 kmh 30.45 in1031.2 mb 0.00 in0.0 mm 0.00 in/hr0.0 mm/hr 0.00 in0.0 mm
04:27 PM 57.4°F14.1°C 46.3°F7.9°C 67% 3.8 mph NW6.1 kmh NW 6.7 mph10.8 kmh 30.45 in1031.2 mb 0.00 in0.0 mm 0.00 in/hr0.0 mm/hr 0.00 in0.0 mm
04:37 PM 56.8°F13.8°C 46.2°F7.9°C 68% 2.7 mph NNW4.3 kmh NNW 4.7 mph7.6 kmh 30.45 in1031.2 mb 0.00 in0.0 mm 0.00 in/hr0.0 mm/hr 0.00 in0.0 mm
04:47 PM 55.9°F13.3°C 45.7°F7.6°C 69% 3.0 mph NW4.8 kmh NW 5.7 mph9.2 kmh 30.45 in1031.2 mb 0.00 in0.0 mm 0.00 in/hr0.0 mm/hr 0.00 in0.0 mm
04:57 PM 55.4°F13.0°C 45.6°F7.6°C 70% 3.3 mph N5.3 kmh N 4.7 mph7.6 kmh 30.45 in1031.2 mb 0.00 in0.0 mm 0.00 in/hr0.0 mm/hr 0.00 in0.0 mm
05:07 PM 54.5°F12.5°C 45.1°F7.3°C 71% 3.1 mph W5.0 kmh W 5.7 mph9.2 kmh 30.44 in1030.8 mb 0.00 in0.0 mm 0.00 in/hr0.0 mm/hr 0.00 in0.0 mm
05:17 PM 54.1°F12.3°C 45.2°F7.3°C 72% 2.6 mph WNW4.2 kmh WNW 5.7 mph9.2 kmh 30.44 in1030.8 mb 0.00 in0.0 mm 0.00 in/hr0.0 mm/hr 0.00 in0.0 mm
05:27 PM 53.8°F12.1°C 45.2°F7.3°C 73% 1.8 mph WNW2.9 kmh WNW 2.3 mph3.7 kmh 30.44 in1030.8 mb 0.00 in0.0 mm 0.00 in/hr0.0 mm/hr 0.00 in0.0 mm
05:37 PM 53.6°F12.0°C 45.0°F7.2°C 73% 2.3 mph NW3.7 kmh NW 3.4 mph5.5 kmh 30.44 in1030.8 mb 0.00 in0.0 mm 0.00 in/hr0.0 mm/hr 0.00 in0.0 mm
05:47 PM 53.4°F11.9°C 44.8°F7.1°C 73% 2.1 mph WNW3.4 kmh WNW 3.4 mph5.5 kmh 30.43 in1030.5 mb 0.00 in0.0 mm 0.00 in/hr0.0 mm/hr 0.00 in0.0 mm
05:57 PM 53.2°F11.8°C 44.7°F7.1°C 73% 2.3 mph NNW3.7 kmh NNW 4.7 mph7.6 kmh 30.43 in1030.5 mb 0.00 in0.0 mm 0.00 in/hr0.0 mm/hr 0.00 in0.0 mm
06:07 PM 52.9°F11.6°C 44.3°F6.8°C 73% 2.5 mph W4.0 kmh W 3.4 mph5.5 kmh 30.43 in1030.5 mb 0.00 in0.0 mm 0.00 in/hr0.0 mm/hr 0.00 in0.0 mm
06:17 PM 52.2°F11.2°C 43.6°F6.4°C 73% 2.6 mph W4.2 kmh W 3.4 mph5.5 kmh 30.43 in1030.5 mb 0.00 in0.0 mm 0.00 in/hr0.0 mm/hr 0.00 in0.0 mm
06:27 PM 51.8°F11.0°C 43.3°F6.3°C 73% 2.3 mph WNW3.7 kmh WNW 3.4 mph5.5 kmh 30.43 in1030.5 mb 0.00 in0.0 mm 0.00 in/hr0.0 mm/hr 0.00 in0.0 mm
06:37 PM 50.9°F10.5°C 42.4°F5.8°C 73% 3.5 mph E5.6 kmh E 4.7 mph7.6 kmh 30.43 in1030.5 mb 0.00 in0.0 mm 0.00 in/hr0.0 mm/hr 0.00 in0.0 mm
06:47 PM 50.4°F10.2°C 42.3°F5.7°C 74% 2.5 mph NW4.0 kmh NW 3.4 mph5.5 kmh 30.43 in1030.5 mb 0.00 in0.0 mm 0.00 in/hr0.0 mm/hr 0.00 in0.0 mm
06:57 PM 50.0°F10.0°C 41.9°F5.5°C 74% 2.3 mph NW3.7 kmh NW 3.4 mph5.5 kmh 30.43 in1030.5 mb 0.00 in0.0 mm 0.00 in/hr0.0 mm/hr 0.00 in0.0 mm
07:07 PM 49.1°F9.5°C 41.4°F5.2°C 75% 1.9 mph NNW3.1 kmh NNW 2.3 mph3.7 kmh 30.43 in1030.5 mb 0.00 in0.0 mm 0.00 in/hr0.0 mm/hr 0.00 in0.0 mm
07:17 PM 48.6°F9.2°C 41.3°F5.2°C 76% 1.6 mph NNW2.6 kmh NNW 2.3 mph3.7 kmh 30.43 in1030.5 mb 0.00 in0.0 mm 0.00 in/hr0.0 mm/hr 0.00 in0.0 mm
07:27 PM 48.0°F8.9°C 41.1°F5.1°C 77% 2.3 mph NW3.7 kmh NW 4.7 mph7.6 kmh 30.43 in1030.5 mb 0.00 in0.0 mm 0.00 in/hr0.0 mm/hr 0.00 in0.0 mm
07:37 PM 47.5°F8.6°C 40.9°F4.9°C 78% 2.1 mph W3.4 kmh W 5.7 mph9.2 kmh 30.43 in1030.5 mb 0.00 in0.0 mm 0.00 in/hr0.0 mm/hr 0.00 in0.0 mm
07:47 PM 47.1°F8.4°C 40.9°F4.9°C 79% 2.4 mph NW3.9 kmh NW 3.4 mph5.5 kmh 30.43 in1030.5 mb 0.00 in0.0 mm 0.00 in/hr0.0 mm/hr 0.00 in0.0 mm
07:57 PM 46.8°F8.2°C 40.9°F4.9°C 80% 2.2 mph NW3.5 kmh NW 6.7 mph10.8 kmh 30.43 in1030.5 mb 0.00 in0.0 mm 0.00 in/hr0.0 mm/hr 0.00 in0.0 mm
08:07 PM 46.4°F8.0°C 40.8°F4.9°C 81% 2.8 mph NW4.5 kmh NW 3.4 mph5.5 kmh 30.43 in1030.5 mb 0.00 in0.0 mm 0.00 in/hr0.0 mm/hr 0.00 in0.0 mm
08:17 PM 46.2°F7.9°C 41.0°F5.0°C 82% 2.1 mph WNW3.4 kmh WNW 3.4 mph5.5 kmh 30.43 in1030.5 mb 0.00 in0.0 mm 0.00 in/hr0.0 mm/hr 0.00 in0.0 mm
08:27 PM 45.9°F7.7°C 41.0°F5.0°C 83% 2.8 mph W4.5 kmh W 5.7 mph9.2 kmh 30.43 in1030.5 mb 0.00 in0.0 mm 0.00 in/hr0.0 mm/hr 0.00 in0.0 mm
08:37 PM 45.7°F7.6°C 40.8°F4.9°C 83% 2.4 mph NW3.9 kmh NW 3.4 mph5.5 kmh 30.43 in1030.5 mb 0.00 in0.0 mm 0.00 in/hr0.0 mm/hr 0.00 in0.0 mm
08:47 PM 45.5°F7.5°C 40.9°F4.9°C 84% 2.7 mph N4.3 kmh N 4.7 mph7.6 kmh 30.43 in1030.5 mb 0.00 in0.0 mm 0.00 in/hr0.0 mm/hr 0.00 in0.0 mm
08:57 PM 45.5°F7.5°C 40.9°F4.9°C 84% 2.8 mph E4.5 kmh E 3.4 mph5.5 kmh 30.43 in1030.5 mb 0.00 in0.0 mm 0.00 in/hr0.0 mm/hr 0.00 in0.0 mm
09:07 PM 45.5°F7.5°C 41.2°F5.1°C 85% 2.8 mph N4.5 kmh N 8.1 mph13.0 kmh 30.43 in1030.5 mb 0.00 in0.0 mm 0.00 in/hr0.0 mm/hr 0.00 in0.0 mm
09:17 PM 45.5°F7.5°C 41.2°F5.1°C 85% 2.5 mph SW4.0 kmh SW 3.4 mph5.5 kmh 30.43 in1030.5 mb 0.00 in0.0 mm 0.00 in/hr0.0 mm/hr 0.00 in0.0 mm
09:27 PM 45.5°F7.5°C 41.2°F5.1°C 85% 3.7 mph ENE6.0 kmh ENE 9.1 mph14.6 kmh 30.43 in1030.5 mb 0.00 in0.0 mm 0.00 in/hr0.0 mm/hr 0.00 in0.0 mm
09:37 PM 45.3°F7.4°C 41.1°F5.1°C 85% 3.1 mph N5.0 kmh N 6.7 mph10.8 kmh 30.42 in1030.1 mb 0.00 in0.0 mm 0.00 in/hr0.0 mm/hr 0.00 in0.0 mm
09:47 PM 45.3°F7.4°C 41.1°F5.1°C 85% 3.5 mph NNW5.6 kmh NNW 8.1 mph13.0 kmh 30.42 in1030.1 mb 0.00 in0.0 mm 0.00 in/hr0.0 mm/hr 0.00 in0.0 mm
09:57 PM 45.3°F7.4°C 41.1°F5.1°C 85% 2.0 mph WSW3.2 kmh WSW 2.3 mph3.7 kmh 30.43 in1030.5 mb 0.00 in0.0 mm 0.00 in/hr0.0 mm/hr 0.00 in0.0 mm
10:07 PM 45.3°F7.4°C 41.1°F5.1°C 85% 2.1 mph WSW3.4 kmh WSW 3.4 mph5.5 kmh 30.43 in1030.5 mb 0.00 in0.0 mm 0.00 in/hr0.0 mm/hr 0.00 in0.0 mm
10:17 PM 45.3°F7.4°C 41.4°F5.2°C 86% 2.4 mph SW3.9 kmh SW 3.4 mph5.5 kmh 30.43 in1030.5 mb 0.00 in0.0 mm 0.00 in/hr0.0 mm/hr 0.00 in0.0 mm
10:27 PM 45.3°F7.4°C 41.4°F5.2°C 86% 2.4 mph E3.9 kmh E 3.4 mph5.5 kmh 30.42 in1030.1 mb 0.00 in0.0 mm 0.00 in/hr0.0 mm/hr 0.00 in0.0 mm
10:37 PM 45.5°F7.5°C 41.5°F5.3°C 86% 3.0 mph N4.8 kmh N 9.1 mph14.6 kmh 30.42 in1030.1 mb 0.00 in0.0 mm 0.00 in/hr0.0 mm/hr 0.00 in0.0 mm
10:47 PM 45.5°F7.5°C 41.5°F5.3°C 86% 3.0 mph WSW4.8 kmh WSW 6.7 mph10.8 kmh 30.42 in1030.1 mb 0.00 in0.0 mm 0.00 in/hr0.0 mm/hr 0.00 in0.0 mm
10:57 PM 45.5°F7.5°C 41.5°F5.3°C 86% 2.9 mph WSW4.7 kmh WSW 4.7 mph7.6 kmh 30.42 in1030.1 mb 0.00 in0.0 mm 0.00 in/hr0.0 mm/hr 0.00 in0.0 mm
11:07 PM 45.3°F7.4°C 41.4°F5.2°C 86% 2.3 mph NNE3.7 kmh NNE 4.7 mph7.6 kmh 30.42 in1030.1 mb 0.00 in0.0 mm 0.00 in/hr0.0 mm/hr 0.00 in0.0 mm
11:17 PM 45.3°F7.4°C 41.4°F5.2°C 86% 2.1 mph NW3.4 kmh NW 3.4 mph5.5 kmh 30.41 in1029.8 mb 0.00 in0.0 mm 0.00 in/hr0.0 mm/hr 0.00 in0.0 mm
11:27 PM 45.3°F7.4°C 41.4°F5.2°C 86% 2.7 mph WSW4.3 kmh WSW 4.7 mph7.6 kmh 30.40 in1029.5 mb 0.00 in0.0 mm 0.00 in/hr0.0 mm/hr 0.00 in0.0 mm
11:37 PM 45.1°F7.3°C 41.2°F5.1°C 86% 2.3 mph NW3.7 kmh NW 3.4 mph5.5 kmh 30.41 in1029.8 mb 0.00 in0.0 mm 0.00 in/hr0.0 mm/hr 0.00 in0.0 mm
11:47 PM 45.1°F7.3°C 41.2°F5.1°C 86% 2.9 mph NE4.7 kmh NE 4.7 mph7.6 kmh 30.40 in1029.5 mb 0.00 in0.0 mm 0.00 in/hr0.0 mm/hr 0.00 in0.0 mm
11:57 PM 45.0°F7.2°C 41.0°F5.0°C 86% 1.5 mph WSW2.4 kmh WSW 2.3 mph3.7 kmh 30.40 in1029.5 mb 0.00 in0.0 mm 0.00 in/hr0.0 mm/hr 0.00 in0.0 mm